Time;durP1;ratioP1;P1;durP2;ratioP2;P2;SDS_P1;SDS_P2;PMS_P1;PMS_P2;Temp;Humidity;BMP_temperature;BMP_pressure;BME280_temperature;BME280_humidity;BME280_pressure;Samples;Min_cycle;Max_cycle;Signal;HPM_P1;HPM_P2
2022/07/30 00:02:38;;;;;;;41.40;20.92;;;;;;;29.61;81.51;97792.06;5027912;28;20053;-71
2022/07/30 00:05:27;;;;;;;42.50;20.75;;;;;;;29.52;81.84;97801.75;5027752;28;20076;-68
2022/07/30 00:08:09;;;;;;;34.50;18.10;;;;;;;29.61;81.15;97797.59;5027611;28;20053;-69
2022/07/30 00:10:58;;;;;;;33.92;17.20;;;;;;;29.66;80.70;97793.75;5027364;28;20081;-69
2022/07/30 00:13:40;;;;;;;33.65;17.83;;;;;;;29.41;81.81;97802.31;5027395;28;20041;-68
2022/07/30 00:16:29;;;;;;;35.47;19.35;;;;;;;29.40;82.01;97803.47;5026805;28;20056;-69
2022/07/30 00:19:11;;;;;;;34.38;17.90;;;;;;;29.62;81.26;97809.47;5017978;28;20054;-70
2022/07/30 00:22:02;;;;;;;38.70;18.42;;;;;;;29.43;81.89;97813.81;5008026;28;20495;-69
2022/07/30 00:24:43;;;;;;;38.95;18.25;;;;;;;29.22;82.36;97818.88;5007000;28;20452;-69
2022/07/30 00:27:38;;;;;;;32.95;17.02;;;;;;;29.25;82.68;97821.72;5016365;28;20065;-69
2022/07/30 00:30:26;;;;;;;34.88;17.70;;;;;;;29.32;82.18;97829.34;5026684;28;20111;-69
2022/07/30 00:33:15;;;;;;;37.30;17.20;;;;;;;29.11;83.10;97835.16;5008774;28;20516;-68
2022/07/30 00:35:57;;;;;;;40.80;17.48;;;;;;;28.82;84.40;97839.19;5027517;28;20049;-68
2022/07/30 00:38:46;;;;;;;39.33;18.00;;;;;;;28.96;84.24;97839.53;5010029;28;20041;-68
2022/07/30 00:41:28;;;;;;;36.83;17.30;;;;;;;29.09;83.45;97831.94;5009577;28;20419;-69
2022/07/30 00:44:17;;;;;;;36.78;17.13;;;;;;;29.08;83.29;97831.16;5026964;28;20056;-69
2022/07/30 00:46:59;;;;;;;34.45;17.50;;;;;;;29.18;83.08;97831.81;5027187;28;20056;-71
2022/07/30 00:49:48;;;;;;;38.42;18.80;;;;;;;29.20;83.07;97838.56;5028168;28;20045;-70
2022/07/30 00:52:34;;;;;;;40.63;19.00;;;;;;;29.34;82.53;97837.28;5009484;28;20053;-70
2022/07/30 00:55:22;;;;;;;43.42;20.08;;;;;;;29.47;82.28;97827.72;5042120;28;20063;-69
2022/07/30 00:58:04;;;;;;;37.78;19.17;;;;;;;29.59;81.66;97837.84;5025994;28;20042;-70
2022/07/30 01:00:54;;;;;;;36.05;18.33;;;;;;;29.84;81.11;97838.41;5008511;28;20144;-70
2022/07/30 01:03:37;;;;;;;44.25;19.13;;;;;;;29.80;81.16;97840.28;5009201;28;20114;-70
2022/07/30 01:06:26;;;;;;;38.95;19.13;;;;;;;29.52;82.20;97854.25;5025251;28;20041;-70
2022/07/30 01:09:08;;;;;;;34.65;17.88;;;;;;;29.68;81.46;97852.28;5026461;28;20050;-70
2022/07/30 01:11:57;;;;;;;45.28;19.77;;;;;;;29.46;82.23;97856.50;5026970;28;20131;-70
2022/07/30 01:14:48;;;;;;;34.95;18.17;;;;;;;29.45;82.04;97858.47;5026534;28;20042;-71
2022/07/30 01:17:31;;;;;;;33.70;16.83;;;;;;;29.47;82.29;97866.41;5008132;28;20044;-71
2022/07/30 01:20:27;;;;;;;34.47;16.02;;;;;;;29.53;81.67;97864.97;4994445;28;20046;-70
2022/07/30 01:23:30;;;;;;;32.22;16.38;;;;;;;29.52;82.25;97855.06;5026177;28;20103;-71
2022/07/30 01:26:30;;;;;;;35.40;17.42;;;;;;;29.57;82.29;97842.94;5021035;28;20069;-69
2022/07/30 01:29:19;;;;;;;36.90;17.25;;;;;;;29.82;81.58;97846.25;5021793;28;20642;-70
2022/07/30 01:32:11;;;;;;;33.20;16.77;;;;;;;29.77;81.62;97855.66;5025689;28;20049;-71
2022/07/30 01:34:57;;;;;;;34.70;16.92;;;;;;;29.71;81.41;97857.06;4993987;28;20045;-71
2022/07/30 01:37:47;;;;;;;37.53;18.85;;;;;;;29.85;80.71;97856.63;5022534;28;20119;-69
2022/07/30 01:40:31;;;;;;;36.92;17.27;;;;;;;29.57;81.93;97868.59;5024893;28;20055;-69
2022/07/30 01:43:21;;;;;;;37.45;17.15;;;;;;;29.65;81.60;97875.09;5008114;28;20077;-70
2022/07/30 01:46:05;;;;;;;37.08;17.63;;;;;;;29.73;81.56;97871.38;5026454;28;20045;-70
2022/07/30 01:48:56;;;;;;;43.25;18.40;;;;;;;29.96;80.69;97874.25;5008451;28;20148;-71
2022/07/30 01:51:34;;;;;;;34.47;16.15;;;;;;;29.95;81.24;97871.81;5025016;28;20424;-69
2022/07/30 01:54:25;;;;;;;36.58;17.42;;;;;;;29.86;81.08;97875.59;5023777;28;20149;-70
2022/07/30 01:57:08;;;;;;;37.75;18.35;;;;;;;30.22;79.93;97881.88;5007892;28;20041;-72
2022/07/30 02:00:11;;;;;;;36.95;17.80;;;;;;;30.14;79.53;97880.13;5024663;28;20045;-71
2022/07/30 02:02:49;;;;;;;35.35;16.92;;;;;;;30.22;79.78;97881.06;5024616;28;20069;-72
2022/07/30 02:05:48;;;;;;;37.55;16.42;;;;;;;30.59;79.24;97875.91;5008062;28;20051;-71
2022/07/30 02:08:49;;;;;;;39.63;19.50;;;;;;;30.74;77.86;97881.69;5023526;28;20056;-70
2022/07/30 02:14:58;;;;;;;37.92;18.40;;;;;;;30.81;77.88;97879.84;5008268;28;20073;-73
2022/07/30 02:17:58;;;;;;;40.15;19.23;;;;;;;30.73;77.86;97877.31;5025542;28;20053;-73
2022/07/30 02:20:41;;;;;;;40.33;20.15;;;;;;;30.28;78.66;97884.34;4988798;28;20644;-72
2022/07/30 02:23:46;;;;;;;38.85;18.88;;;;;;;30.87;78.09;97887.84;5017868;28;20414;-72
2022/07/30 02:26:30;;;;;;;35.88;18.23;;;;;;;30.90;77.29;97876.84;5029160;28;20084;-72
2022/07/30 02:29:21;;;;;;;35.70;18.23;;;;;;;30.69;78.49;97876.44;5010012;28;20053;-72
2022/07/30 02:32:08;;;;;;;37.45;19.17;;;;;;;30.78;78.30;97877.00;5009215;28;20052;-73
2022/07/30 02:35:04;;;;;;;36.50;19.00;;;;;;;30.80;77.55;97877.44;5008800;28;20052;-71
2022/07/30 02:37:51;;;;;;;34.20;19.08;;;;;;;30.68;77.13;97872.88;5007928;28;20654;-72
2022/07/30 02:40:41;;;;;;;29.83;16.77;;;;;;;31.00;77.49;97876.22;4988275;28;20050;-73
2022/07/30 02:43:25;;;;;;;33.28;18.52;;;;;;;30.42;77.60;97879.94;4988215;28;20060;-73
2022/07/30 02:46:18;;;;;;;35.05;17.67;;;;;;;31.00;77.19;97881.78;5004088;28;20045;-71
2022/07/30 02:49:38;;;;;;;27.42;17.05;;;;;;;30.79;76.26;97881.38;5024550;28;20053;-73
2022/07/30 02:52:22;;;;;;;29.65;18.13;;;;;;;30.71;77.78;97877.69;5007611;28;20068;-71
2022/07/30 02:55:12;;;;;;;35.67;18.58;;;;;;;30.88;76.87;97873.63;5024037;28;20485;-72
2022/07/30 02:58:03;;;;;;;28.45;17.75;;;;;;;31.09;75.92;97875.16;5024645;28;20059;-72
2022/07/30 03:00:55;;;;;;;29.20;16.63;;;;;;;31.12;76.21;97872.47;5024003;28;20128;-71
2022/07/30 03:03:37;;;;;;;28.98;17.70;;;;;;;30.98;76.81;97867.50;5007546;28;20046;-72
2022/07/30 03:06:26;;;;;;;31.77;17.95;;;;;;;30.71;76.20;97866.59;5010050;28;20053;-69
2022/07/30 03:09:10;;;;;;;31.52;17.45;;;;;;;30.79;75.95;97867.53;5026982;28;20042;-73
2022/07/30 03:12:02;;;;;;;28.20;18.27;;;;;;;31.02;75.13;97867.56;5029026;28;20540;-73
2022/07/30 03:14:45;;;;;;;28.95;16.33;;;;;;;31.17;75.99;97872.16;5010550;28;20041;-72
2022/07/30 03:17:39;;;;;;;24.17;16.42;;;;;;;30.92;76.26;97876.50;5007668;28;20136;-72
2022/07/30 03:20:26;;;;;;;26.55;16.45;;;;;;;30.59;76.23;97878.66;4994330;28;20049;-72
2022/07/30 03:23:26;;;;;;;26.95;16.23;;;;;;;30.58;76.88;97879.81;5024177;28;20116;-72
2022/07/30 03:26:04;;;;;;;27.50;16.38;;;;;;;30.68;77.45;97875.63;5015054;28;20045;-73
2022/07/30 03:29:00;;;;;;;24.05;16.50;;;;;;;30.95;75.84;97872.97;5018213;28;20053;-71
2022/07/30 03:31:39;;;;;;;28.13;16.13;;;;;;;31.00;75.82;97878.22;5015820;28;20050;-72
2022/07/30 03:34:30;;;;;;;23.02;15.63;;;;;;;30.81;75.67;97887.34;5017255;28;20384;-71
2022/07/30 03:37:20;;;;;;;26.25;15.13;;;;;;;31.39;74.56;97876.06;5009914;28;20041;-72
2022/07/30 03:40:04;;;;;;;22.63;15.45;;;;;;;31.93;74.28;97892.69;5011082;28;20746;-72
2022/07/30 03:42:54;;;;;;;24.67;15.32;;;;;;;31.79;72.97;97884.97;5028283;28;20041;-71
2022/07/30 03:45:41;;;;;;;21.10;15.00;;;;;;;31.90;73.14;97888.69;4976408;28;20052;-72
2022/07/30 03:48:33;;;;;;;22.38;14.63;;;;;;;32.25;73.03;97881.22;5000563;28;20455;-73
2022/07/30 03:51:16;;;;;;;19.48;15.23;;;;;;;32.04;72.52;97888.09;5010303;28;20064;-70
2022/07/30 03:54:12;;;;;;;20.70;14.55;;;;;;;31.70;72.74;97887.22;5023265;28;20419;-73
2022/07/30 03:57:11;;;;;;;19.45;15.15;;;;;;;31.79;73.29;97887.75;5023515;28;20139;-71
2022/07/30 04:00:00;;;;;;;20.25;15.57;;;;;;;31.79;72.97;97896.06;5021437;28;20061;-73
2022/07/30 04:02:46;;;;;;;24.08;15.32;;;;;;;32.01;73.58;97891.63;5008544;28;20053;-72
2022/07/30 04:05:55;;;;;;;20.17;15.77;;;;;;;32.06;72.47;97899.63;5007543;28;20053;-73
2022/07/30 04:08:37;;;;;;;18.80;14.57;;;;;;;32.46;73.54;97892.56;5020678;28;20050;-73
2022/07/30 04:11:26;;;;;;;21.23;15.38;;;;;;;32.82;72.35;97890.19;5007815;28;20049;-73
2022/07/30 04:14:23;;;;;;;20.63;14.85;;;;;;;32.75;70.02;97893.72;5019201;28;20141;-74
2022/07/30 04:17:21;;;;;;;18.98;13.40;;;;;;;33.21;70.53;97889.78;5024614;28;20544;-74
2022/07/30 04:20:16;;;;;;;16.27;12.77;;;;;;;33.28;69.82;97889.81;5011726;28;20053;-72
2022/07/30 04:23:04;;;;;;;18.70;14.25;;;;;;;33.51;69.26;97897.91;4989029;28;20076;-73
2022/07/30 04:25:50;;;;;;;22.80;13.63;;;;;;;33.01;68.68;97894.72;4990067;28;20072;-73
2022/07/30 04:28:45;;;;;;;19.05;13.55;;;;;;;33.09;69.78;97890.03;5005014;28;20057;-73
2022/07/30 04:31:42;;;;;;;16.48;13.85;;;;;;;32.99;69.52;97888.75;5006168;28;20064;-71
2022/07/30 04:34:33;;;;;;;21.70;13.85;;;;;;;32.26;69.92;97891.94;5024149;28;20496;-72
2022/07/30 04:37:27;;;;;;;18.90;13.88;;;;;;;32.82;69.73;97898.53;5003486;28;20054;-71
2022/07/30 04:40:11;;;;;;;17.63;14.20;;;;;;;32.66;70.70;97897.97;5009510;28;20785;-72
2022/07/30 04:43:15;;;;;;;18.73;14.82;;;;;;;32.81;69.53;97899.72;5007282;28;20520;-72
2022/07/30 04:45:51;;;;;;;19.17;15.20;;;;;;;32.58;71.25;97900.69;5021073;28;20041;-71
2022/07/30 04:48:40;;;;;;;19.77;15.27;;;;;;;32.54;72.40;97899.00;5021013;28;20049;-70
2022/07/30 04:51:33;;;;;;;22.60;15.38;;;;;;;32.41;70.54;97901.25;5018503;28;20703;-71
2022/07/30 04:54:24;;;;;;;19.75;14.70;;;;;;;32.83;72.02;97910.44;5020319;28;20492;-71
2022/07/30 04:57:06;;;;;;;24.40;15.55;;;;;;;32.85;70.29;97906.09;5003282;28;20053;-72
2022/07/30 04:59:55;;;;;;;20.42;15.10;;;;;;;32.80;68.67;97912.00;4992944;28;20053;-71
2022/07/30 05:02:40;;;;;;;18.67;13.53;;;;;;;33.03;70.17;97911.03;5004717;28;20045;-71
2022/07/30 05:05:36;;;;;;;20.83;14.52;;;;;;;33.23;69.94;97918.00;5013110;28;20544;-71
2022/07/30 05:08:25;;;;;;;19.95;15.20;;;;;;;33.17;69.36;97922.28;5021809;28;20046;-71
2022/07/30 05:11:12;;;;;;;18.65;15.43;;;;;;;32.96;68.88;97920.09;5004233;28;20041;-72
2022/07/30 05:14:00;;;;;;;21.73;15.38;;;;;;;33.25;70.28;97912.84;5022816;28;20064;-75
2022/07/30 05:16:49;;;;;;;21.38;16.42;;;;;;;33.10;69.30;97913.88;4995970;28;20052;-75
2022/07/30 05:19:31;;;;;;;22.23;15.95;;;;;;;32.89;69.41;97920.03;5024211;28;20042;-75
2022/07/30 05:22:20;;;;;;;19.98;15.65;;;;;;;33.02;68.31;97920.53;5007113;28;20053;-72
2022/07/30 05:25:02;;;;;;;20.75;16.38;;;;;;;32.96;68.81;97917.31;5007310;28;20061;-72
2022/07/30 05:28:05;;;;;;;18.88;15.98;;;;;;;33.34;67.86;97907.75;5004259;28;20054;-72
2022/07/30 05:30:55;;;;;;;20.30;16.98;;;;;;;33.35;69.32;97926.03;4989597;28;20725;-73
2022/07/30 05:33:53;;;;;;;22.25;16.77;;;;;;;33.52;66.71;97913.44;4990308;28;20559;-70
2022/07/30 05:36:49;;;;;;;18.60;15.80;;;;;;;33.68;66.34;97913.16;4990170;28;20469;-72
2022/07/30 05:39:38;;;;;;;19.67;16.90;;;;;;;33.47;64.85;97913.00;5007603;28;20054;-72
2022/07/30 05:42:51;;;;;;;17.83;15.85;;;;;;;34.32;65.27;97911.94;5006597;28;20684;-71
2022/07/30 05:45:40;;;;;;;17.02;15.13;;;;;;;34.84;65.46;97908.91;5005176;28;20050;-71
2022/07/30 05:48:31;;;;;;;16.30;13.80;;;;;;;34.85;62.97;97905.75;5018889;28;20119;-71
2022/07/30 05:51:13;;;;;;;16.42;14.60;;;;;;;35.13;63.54;97912.53;5019067;28;20053;-71
2022/07/30 05:54:03;;;;;;;16.80;13.60;;;;;;;35.10;63.78;97910.50;5006667;28;20051;-70
2022/07/30 05:57:17;;;;;;;16.15;13.73;;;;;;;35.25;60.88;97906.56;5023233;28;20806;-70
2022/07/30 06:00:07;;;;;;;16.58;14.77;;;;;;;35.03;61.55;97907.75;5008091;28;20496;-71
2022/07/30 06:02:59;;;;;;;15.23;13.48;;;;;;;34.66;65.23;97906.06;4994401;28;20373;-72
2022/07/30 06:06:12;;;;;;;19.17;15.23;;;;;;;34.68;63.82;97909.25;5024740;28;20046;-72
2022/07/30 06:08:58;;;;;;;18.83;14.57;;;;;;;34.86;62.14;97910.09;5008681;28;20136;-69
2022/07/30 06:11:47;;;;;;;19.58;15.00;;;;;;;34.76;64.44;97922.03;5007695;28;20069;-76
2022/07/30 06:14:31;;;;;;;18.60;15.43;;;;;;;34.46;64.22;97923.13;4990963;28;20046;-76
2022/07/30 06:17:27;;;;;;;19.10;15.93;;;;;;;34.22;64.63;97923.81;4987998;28;20057;-75
2022/07/30 06:20:20;;;;;;;24.02;18.20;;;;;;;34.08;64.89;97927.31;5006121;28;20049;-76
2022/07/30 06:23:30;;;;;;;26.83;20.75;;;;;;;34.07;66.54;97929.31;5004962;28;20120;-76
2022/07/30 06:26:28;;;;;;;32.15;23.33;;;;;;;33.77;68.50;97928.75;4997631;28;20069;-75
2022/07/30 06:29:24;;;;;;;31.05;24.77;;;;;;;33.58;69.20;97921.44;5004496;28;20057;-75
2022/07/30 06:32:18;;;;;;;32.42;25.02;;;;;;;33.51;70.57;97927.72;4974110;28;20061;-76
2022/07/30 06:35:08;;;;;;;42.17;27.77;;;;;;;33.08;71.49;97922.59;4971835;28;20057;-74
2022/07/30 06:37:51;;;;;;;45.67;29.48;;;;;;;32.96;73.70;97920.91;4962308;28;20045;-75
2022/07/30 06:40:59;;;;;;;49.45;29.90;;;;;;;32.80;75.20;97909.22;5003656;28;20049;-75
2022/07/30 06:44:03;;;;;;;40.00;28.90;;;;;;;32.99;74.68;97908.22;4977595;28;20120;-74
2022/07/30 06:47:10;;;;;;;44.45;29.27;;;;;;;32.93;75.70;97898.63;5008169;28;20065;-77
2022/07/30 06:49:54;;;;;;;42.90;30.23;;;;;;;32.76;73.48;97902.84;5007372;28;20062;-75
2022/07/30 06:52:43;;;;;;;38.80;29.23;;;;;;;33.09;76.45;97895.59;5004546;28;20045;-75
2022/07/30 06:55:26;;;;;;;42.70;30.53;;;;;;;33.49;73.59;97891.16;4996219;28;20116;-76
2022/07/30 06:58:15;;;;;;;41.17;30.48;;;;;;;33.05;69.52;97892.78;5009253;28;20041;-76
2022/07/30 07:01:25;;;;;;;40.63;29.98;;;;;;;33.25;69.59;97885.03;4998135;28;20077;-73
2022/07/30 07:04:14;;;;;;;40.95;28.13;;;;;;;33.21;70.17;97875.06;4997935;28;20129;-71
2022/07/30 07:06:56;;;;;;;41.45;28.55;;;;;;;33.97;68.52;97874.34;5007755;28;20046;-72
2022/07/30 07:09:53;;;;;;;42.78;27.52;;;;;;;34.21;67.82;97858.19;5004679;28;20129;-75
2022/07/30 07:12:54;;;;;;;40.05;31.45;;;;;;;34.07;66.98;97848.56;5009091;28;20120;-74
2022/07/30 07:15:43;;;;;;;44.83;32.63;;;;;;;34.00;68.21;97844.97;4985565;28;20053;-73
2022/07/30 07:18:28;;;;;;;38.08;31.20;;;;;;;34.22;68.76;97834.69;4975986;28;20073;-76
2022/07/30 07:21:17;;;;;;;38.72;29.83;;;;;;;33.98;66.05;97839.78;4999879;28;20120;-74
2022/07/30 07:24:02;;;;;;;43.67;31.15;;;;;;;34.45;67.54;97839.94;5007618;28;20044;-76
2022/07/30 07:27:02;;;;;;;46.30;31.95;;;;;;;34.40;67.02;97831.97;4990873;28;20118;-76
2022/07/30 07:29:59;;;;;;;42.40;34.45;;;;;;;34.14;64.11;97819.94;4993311;28;20050;-74
2022/07/30 07:32:49;;;;;;;49.90;33.17;;;;;;;34.02;64.77;97812.75;4987992;28;20505;-75
2022/07/30 07:35:32;;;;;;;47.00;33.95;;;;;;;34.58;70.31;97809.72;4989884;28;20145;-73
2022/07/30 07:38:33;;;;;;;48.65;35.33;;;;;;;34.45;65.11;97806.50;4978495;28;20073;-75
2022/07/30 07:41:16;;;;;;;50.95;34.58;;;;;;;33.92;65.32;97803.16;4997139;28;20914;-75
2022/07/30 07:44:04;;;;;;;48.20;34.85;;;;;;;34.57;65.88;97797.78;4994421;28;20061;-75
2022/07/30 07:46:47;;;;;;;56.10;35.28;;;;;;;34.67;66.36;97799.00;4996124;28;20140;-74
2022/07/30 07:49:40;;;;;;;50.83;35.72;;;;;;;34.61;64.29;97792.22;4998029;28;20046;-72
2022/07/30 07:52:22;;;;;;;45.28;33.13;;;;;;;34.74;63.83;97785.06;5015353;28;20045;-72
2022/07/30 07:55:12;;;;;;;47.83;36.88;;;;;;;34.98;63.18;97783.44;4976267;28;20046;-76
2022/07/30 07:57:56;;;;;;;49.25;35.10;;;;;;;35.09;64.54;97783.44;4994325;28;20042;-75
2022/07/30 08:00:46;;;;;;;44.17;34.50;;;;;;;35.19;62.75;97781.88;4971363;28;20050;-71
2022/07/30 08:03:36;;;;;;;47.78;35.35;;;;;;;34.74;61.80;97782.28;4993180;28;20062;-72
2022/07/30 08:06:45;;;;;;;43.83;33.53;;;;;;;34.74;61.88;97773.94;4997371;28;20049;-70
2022/07/30 08:09:45;;;;;;;44.53;33.70;;;;;;;34.69;60.96;97768.75;4996221;28;20054;-73
2022/07/30 08:12:34;;;;;;;47.90;34.90;;;;;;;34.86;61.17;97756.78;4999194;28;20049;-75
2022/07/30 08:15:51;;;;;;;49.40;35.13;;;;;;;34.63;63.31;97745.25;4966269;28;20857;-72
2022/07/30 08:19:00;;;;;;;46.10;34.70;;;;;;;34.81;63.18;97742.44;4995962;28;20141;-75
2022/07/30 08:21:58;;;;;;;47.97;33.42;;;;;;;35.02;64.76;97734.06;4997485;28;20112;-74
2022/07/30 08:24:40;;;;;;;51.15;35.13;;;;;;;34.85;63.68;97730.13;4991928;28;20050;-70
2022/07/30 08:27:36;;;;;;;48.85;36.33;;;;;;;34.65;63.90;97715.75;4995900;28;20050;-69
2022/07/30 08:30:19;;;;;;;50.35;38.40;;;;;;;34.45;63.64;97726.53;4994605;28;20057;-69
2022/07/30 08:33:08;;;;;;;49.65;35.67;;;;;;;34.82;62.25;97713.41;4986624;28;20042;-73
2022/07/30 08:35:51;;;;;;;48.30;34.27;;;;;;;34.94;60.68;97714.97;4647747;28;10000135;-72
2022/07/30 08:38:50;;;;;;;44.33;34.08;;;;;;;34.95;61.97;97714.56;4984619;28;20162;-72
2022/07/30 08:41:47;;;;;;;59.63;36.53;;;;;;;34.88;61.93;97714.56;5010149;28;20053;-71
2022/07/30 08:44:23;;;;;;;45.83;33.92;;;;;;;34.97;62.83;97720.53;4994345;28;20050;-74
2022/07/30 08:47:23;;;;;;;46.00;33.83;;;;;;;35.07;64.65;97714.13;4989735;28;20050;-73
2022/07/30 08:50:08;;;;;;;45.78;35.20;;;;;;;35.09;64.50;97705.38;5010040;28;20049;-77
2022/07/30 08:53:18;;;;;;;48.53;35.80;;;;;;;34.88;62.69;97687.50;4979642;28;20053;-76
2022/07/30 08:56:07;;;;;;;49.92;36.47;;;;;;;34.29;63.53;97681.56;4995164;28;20513;-75
2022/07/30 08:58:51;;;;;;;47.97;34.40;;;;;;;34.73;63.75;97676.78;5000061;28;20504;-74
2022/07/30 09:01:40;;;;;;;46.03;32.00;;;;;;;34.86;63.76;97675.16;5009819;28;20053;-75
2022/07/30 09:04:22;;;;;;;40.42;29.90;;;;;;;34.89;63.40;97672.38;4991778;28;20056;-76
2022/07/30 09:07:12;;;;;;;42.80;30.23;;;;;;;35.04;62.82;97670.31;4987355;28;20058;-75
2022/07/30 09:10:08;;;;;;;36.47;27.92;;;;;;;35.04;61.48;97663.94;5006903;28;20037;-76
2022/07/30 09:12:45;;;;;;;42.90;28.27;;;;;;;34.86;60.23;97659.22;4985804;28;20064;-75
2022/07/30 09:15:44;;;;;;;42.17;31.20;;;;;;;34.85;63.93;97660.44;4989968;28;20136;-72
2022/07/30 09:18:43;;;;;;;52.10;31.58;;;;;;;35.08;62.99;97648.81;4988489;28;20038;-77
2022/07/30 09:21:37;;;;;;;46.30;31.85;;;;;;;35.19;62.15;97643.22;4992241;28;20049;-76
2022/07/30 09:24:42;;;;;;;45.35;31.83;;;;;;;35.27;62.53;97650.38;4989393;28;20046;-79
2022/07/30 09:27:57;;;;;;;52.55;32.40;;;;;;;35.34;62.34;97648.75;4989148;28;20053;-76
2022/07/30 09:31:08;;;;;;;49.60;32.95;;;;;;;35.26;61.66;97628.44;4966217;28;20046;-74
2022/07/30 09:34:45;;;;;;;44.60;31.42;;;;;;;35.12;60.75;97620.88;4912230;29;20072;-77
2022/07/30 09:37:59;;;;;;;48.10;32.58;;;;;;;34.92;63.51;97605.84;4949476;28;20152;-77
2022/07/30 09:41:16;;;;;;;46.88;31.77;;;;;;;35.31;62.34;97602.91;5000400;28;20093;-77
2022/07/30 09:44:28;;;;;;;47.17;32.30;;;;;;;35.15;62.05;97602.56;4977700;28;20057;-77
2022/07/30 09:47:37;;;;;;;39.80;29.75;;;;;;;35.24;60.98;97592.59;4983507;28;20096;-77
2022/07/30 09:50:20;;;;;;;46.13;27.83;;;;;;;35.26;60.53;97587.41;4984144;28;20050;-76
2022/07/30 09:53:15;;;;;;;44.05;28.25;;;;;;;35.28;62.46;97587.78;4980841;28;20062;-74
2022/07/30 09:56:24;;;;;;;38.85;24.42;;;;;;;35.21;60.94;97573.88;4986350;28;20049;-73
2022/07/30 09:59:11;;;;;;;39.78;26.45;;;;;;;35.46;62.05;97575.72;4980746;28;20208;-74
2022/07/30 10:02:01;;;;;;;38.88;24.50;;;;;;;35.42;61.67;97561.78;4982324;28;20053;-76
2022/07/30 10:05:21;;;;;;;34.75;24.30;;;;;;;35.43;59.75;97552.25;5013287;28;20248;-74
2022/07/30 10:08:09;;;;;;;40.90;23.25;;;;;;;35.70;60.68;97548.88;4982755;28;20038;-72
2022/07/30 10:10:58;;;;;;;29.17;21.60;;;;;;;35.67;59.97;97550.47;5002542;28;20568;-75
2022/07/30 10:13:58;;;;;;;26.77;20.38;;;;;;;35.74;59.74;97544.06;4642223;28;9999586;-74
2022/07/30 10:16:40;;;;;;;30.35;19.27;;;;;;;35.77;57.45;97545.22;4952921;28;20160;-74
2022/07/30 10:19:32;;;;;;;27.17;18.40;;;;;;;35.58;58.53;97543.75;4969787;28;20050;-72
2022/07/30 10:22:24;;;;;;;26.77;18.60;;;;;;;35.58;60.79;97544.56;4991949;28;20049;-71
2022/07/30 10:25:31;;;;;;;37.70;23.00;;;;;;;35.39;59.80;97540.31;4985259;28;20053;-73
2022/07/30 10:28:50;;;;;;;35.83;23.25;;;;;;;35.45;58.92;97552.63;4987402;28;20470;-72
2022/07/30 10:31:33;;;;;;;33.42;23.65;;;;;;;35.70;57.96;97548.09;4989273;28;20121;-73
2022/07/30 10:34:29;;;;;;;33.97;23.63;;;;;;;35.68;56.99;97546.50;4988842;28;20050;-73
2022/07/30 10:37:16;;;;;;;28.85;20.60;;;;;;;35.76;58.71;97543.66;5000556;28;20375;-74
2022/07/30 10:40:20;;;;;;;23.52;19.05;;;;;;;35.73;60.00;97539.69;4989621;28;20054;-74
2022/07/30 10:43:41;;;;;;;24.45;17.77;;;;;;;35.74;58.94;97540.50;5005018;28;20085;-73
2022/07/30 10:46:55;;;;;;;25.52;18.70;;;;;;;35.56;58.77;97524.66;4955259;28;20491;-72
2022/07/30 10:49:39;;;;;;;24.90;18.13;;;;;;;35.40;57.64;97521.56;5009552;28;20049;-74
2022/07/30 10:52:55;;;;;;;30.50;22.17;;;;;;;34.85;60.76;97517.47;5004943;28;20556;-71
2022/07/30 10:55:51;;;;;;;53.67;33.55;;;;;;;34.47;61.57;97503.25;5004660;28;20100;-72
2022/07/30 10:58:27;;;;;;;45.53;31.25;;;;;;;34.87;61.45;97507.50;4984083;28;20042;-72
2022/07/30 11:01:15;;;;;;;40.65;29.70;;;;;;;35.00;62.12;97501.47;4983106;28;20051;-71
2022/07/30 11:04:30;;;;;;;42.05;30.25;;;;;;;34.92;62.78;97500.72;5001635;28;20053;-71
2022/07/30 11:07:21;;;;;;;40.67;29.88;;;;;;;34.31;62.68;97492.56;5003838;28;20063;-74
2022/07/30 11:10:10;;;;;;;40.08;30.45;;;;;;;34.53;62.03;97496.09;4987262;28;20058;-72
2022/07/30 11:12:54;;;;;;;38.88;29.00;;;;;;;34.73;62.33;97499.22;4971119;28;20341;-73
2022/07/30 11:16:04;;;;;;;40.22;29.42;;;;;;;34.79;63.86;97496.78;4976688;28;20056;-69
2022/07/30 11:19:16;;;;;;;42.95;30.50;;;;;;;34.63;62.46;97494.44;4976786;28;20061;-72
2022/07/30 11:22:43;;;;;;;44.45;31.05;;;;;;;34.65;61.59;97494.84;5000111;28;20116;-75
2022/07/30 11:25:33;;;;;;;46.05;31.85;;;;;;;34.54;62.87;97491.31;4982921;28;20046;-73
2022/07/30 11:28:47;;;;;;;39.53;30.55;;;;;;;34.73;64.21;97496.41;4998566;28;20392;-76
2022/07/30 11:31:38;;;;;;;41.38;29.67;;;;;;;34.74;63.22;97500.00;4965578;28;20058;-76
2022/07/30 11:34:53;;;;;;;40.45;32.53;;;;;;;34.20;64.18;97494.56;5010015;28;20056;-74
2022/07/30 11:38:10;;;;;;;38.05;29.15;;;;;;;34.72;62.47;97483.69;5008804;28;20049;-74
2022/07/30 11:41:02;;;;;;;44.28;30.52;;;;;;;34.46;62.56;97484.97;5010798;28;20127;-75
2022/07/30 11:43:44;;;;;;;40.40;29.38;;;;;;;34.43;64.03;97489.34;5012429;28;20057;-75
2022/07/30 11:46:33;;;;;;;37.10;27.80;;;;;;;34.58;62.45;97492.06;5010934;28;20842;-75
2022/07/30 11:49:17;;;;;;;36.95;28.00;;;;;;;34.55;63.93;97487.31;5009571;28;20045;-71
2022/07/30 11:52:06;;;;;;;39.72;28.52;;;;;;;34.50;63.68;97480.94;4962607;28;20045;-76
2022/07/30 11:54:58;;;;;;;36.53;26.38;;;;;;;34.27;63.12;97489.78;5021385;28;20045;-74
2022/07/30 11:57:48;;;;;;;34.72;26.80;;;;;;;34.26;63.22;97477.06;5012733;28;20043;-77
2022/07/30 12:00:46;;;;;;;33.78;27.20;;;;;;;34.53;62.96;97465.44;5017381;28;20465;-73
2022/07/30 12:03:31;;;;;;;35.55;25.63;;;;;;;34.49;62.89;97465.44;5003041;28;20061;-75
2022/07/30 12:06:22;;;;;;;33.30;26.27;;;;;;;34.46;64.27;97468.25;5004255;28;20065;-74
2022/07/30 12:09:05;;;;;;;35.15;26.67;;;;;;;34.35;66.28;97478.63;5008738;28;20137;-74
2022/07/30 12:11:55;;;;;;;33.92;27.77;;;;;;;33.95;64.99;97484.25;4987507;28;20147;-76
2022/07/30 12:14:43;;;;;;;33.05;27.55;;;;;;;34.11;65.36;97476.28;5000525;28;20053;-74
2022/07/30 12:17:45;;;;;;;34.20;28.40;;;;;;;33.69;66.41;97460.44;5005985;28;20491;-75
2022/07/30 12:21:15;;;;;;;34.03;27.45;;;;;;;34.11;65.46;97462.34;5000810;28;20050;-72
2022/07/30 12:24:03;;;;;;;37.60;28.20;;;;;;;34.05;66.06;97461.19;5019568;28;20045;-75
2022/07/30 12:26:52;;;;;;;33.47;27.25;;;;;;;33.99;65.81;97451.63;5008301;28;20058;-74
2022/07/30 12:29:36;;;;;;;39.50;28.25;;;;;;;34.05;65.95;97443.66;4993567;28;20052;-72
2022/07/30 12:32:26;;;;;;;38.03;29.17;;;;;;;33.84;66.95;97442.53;5015283;28;20745;-71
2022/07/30 12:35:20;;;;;;;38.83;31.42;;;;;;;33.94;67.94;97449.28;4991425;28;20131;-70
2022/07/30 12:38:09;;;;;;;37.15;29.63;;;;;;;33.96;67.78;97449.66;4992731;28;20431;-70
2022/07/30 12:41:02;;;;;;;48.70;32.58;;;;;;;33.79;68.58;97458.84;4998526;28;20458;-71
2022/07/30 12:43:55;;;;;;;42.20;30.90;;;;;;;33.27;68.98;97462.78;4999387;28;20057;-71
2022/07/30 12:46:44;;;;;;;38.47;30.50;;;;;;;33.18;69.47;97465.16;4966713;28;20694;-72
2022/07/30 12:49:33;;;;;;;39.35;30.42;;;;;;;33.41;69.47;97472.34;4986757;28;20056;-74
2022/07/30 12:52:37;;;;;;;39.47;31.30;;;;;;;33.35;69.31;97477.50;4990629;28;20057;-69
2022/07/30 12:55:32;;;;;;;42.15;29.48;;;;;;;33.42;69.90;97488.63;4990508;28;20155;-74
2022/07/30 12:58:14;;;;;;;35.13;27.95;;;;;;;33.22;69.35;97488.19;4999948;28;20046;-69
2022/07/30 13:01:10;;;;;;;27.67;22.58;;;;;;;32.87;69.46;97492.47;4991997;28;20078;-76
2022/07/30 13:03:46;;;;;;;27.52;21.42;;;;;;;33.05;68.95;97494.50;4994958;28;20219;-72
2022/07/30 13:06:42;;;;;;;29.98;22.35;;;;;;;32.62;69.15;97505.44;4993432;28;20382;-72
2022/07/30 13:09:20;;;;;;;22.63;18.05;;;;;;;32.58;68.30;97502.69;4999530;28;20144;-76
2022/07/30 13:12:13;;;;;;;23.25;18.10;;;;;;;32.83;67.72;97502.78;5001521;28;20042;-76
2022/07/30 13:14:55;;;;;;;29.52;19.58;;;;;;;32.53;68.04;97498.25;4990794;28;20579;-73
2022/07/30 13:17:44;;;;;;;22.35;19.17;;;;;;;32.47;69.71;97497.03;5009291;28;20045;-73